sensor_id;sensor_type;location;lat;lon;timestamp;pressure;altitude;pressure_sealevel;temperature;humidity
70833;BME280;71099;59.528;17.886;2023-08-06T00:01:11;100765.44;;;13.97;79.36
70833;BME280;71099;59.528;17.886;2023-08-06T00:03:37;100786.00;;;14.06;79.63
70833;BME280;71099;59.528;17.886;2023-08-06T00:06:04;100792.03;;;14.07;79.79
70833;BME280;71099;59.528;17.886;2023-08-06T00:08:30;100792.34;;;14.04;79.92
70833;BME280;71099;59.528;17.886;2023-08-06T00:10:55;100782.59;;;14.06;79.70
70833;BME280;71099;59.528;17.886;2023-08-06T00:13:21;100785.53;;;14.03;79.86
70833;BME280;71099;59.528;17.886;2023-08-06T00:15:46;100788.94;;;14.03;79.52
70833;BME280;71099;59.528;17.886;2023-08-06T00:18:12;100787.97;;;14.04;79.52
70833;BME280;71099;59.528;17.886;2023-08-06T00:20:40;100788.13;;;14.03;79.81
70833;BME280;71099;59.528;17.886;2023-08-06T00:23:07;100789.41;;;13.99;79.88
70833;BME280;71099;59.528;17.886;2023-08-06T00:25:32;100791.38;;;13.97;79.81
70833;BME280;71099;59.528;17.886;2023-08-06T00:27:58;100789.75;;;13.96;80.05
70833;BME280;71099;59.528;17.886;2023-08-06T00:30:23;100800.44;;;13.93;80.00
70833;BME280;71099;59.528;17.886;2023-08-06T00:32:48;100795.41;;;13.91;80.07
70833;BME280;71099;59.528;17.886;2023-08-06T00:35:14;100792.00;;;13.91;80.19
70833;BME280;71099;59.528;17.886;2023-08-06T00:37:39;100791.38;;;13.89;80.50
70833;BME280;71099;59.528;17.886;2023-08-06T00:40:06;100780.66;;;13.84;80.42
70833;BME280;71099;59.528;17.886;2023-08-06T00:42:32;100790.06;;;13.85;80.41
70833;BME280;71099;59.528;17.886;2023-08-06T00:44:58;100791.03;;;13.84;80.38
70833;BME280;71099;59.528;17.886;2023-08-06T00:47:23;100791.34;;;13.81;80.40
70833;BME280;71099;59.528;17.886;2023-08-06T00:49:49;100787.47;;;13.77;80.45
70833;BME280;71099;59.528;17.886;2023-08-06T00:52:14;100788.44;;;13.76;80.75
70833;BME280;71099;59.528;17.886;2023-08-06T00:54:40;100785.19;;;13.74;81.08
70833;BME280;71099;59.528;17.886;2023-08-06T00:57:07;100782.78;;;13.72;81.03
70833;BME280;71099;59.528;17.886;2023-08-06T00:59:34;100774.19;;;13.72;81.37
70833;BME280;71099;59.528;17.886;2023-08-06T01:01:59;100781.97;;;13.72;81.56
70833;BME280;71099;59.528;17.886;2023-08-06T01:04:24;100781.28;;;13.69;81.34
70833;BME280;71099;59.528;17.886;2023-08-06T01:07:02;100785.50;;;13.70;81.46
70833;BME280;71099;59.528;17.886;2023-08-06T01:09:54;100789.06;;;13.69;81.34
70833;BME280;71099;59.528;17.886;2023-08-06T01:12:29;100795.06;;;13.70;81.49
70833;BME280;71099;59.528;17.886;2023-08-06T01:15:10;100790.03;;;13.68;81.61
70833;BME280;71099;59.528;17.886;2023-08-06T01:17:37;100785.03;;;13.67;81.67
70833;BME280;71099;59.528;17.886;2023-08-06T01:20:03;100784.53;;;13.63;81.51
70833;BME280;71099;59.528;17.886;2023-08-06T01:22:29;100783.72;;;13.63;81.87
70833;BME280;71099;59.528;17.886;2023-08-06T01:24:54;100784.03;;;13.60;81.87
70833;BME280;71099;59.528;17.886;2023-08-06T01:32:35;100789.06;;;13.53;82.09
70833;BME280;71099;59.528;17.886;2023-08-06T01:35:03;100790.03;;;13.52;81.98
70833;BME280;71099;59.528;17.886;2023-08-06T01:37:29;100784.16;;;13.50;82.39
70833;BME280;71099;59.528;17.886;2023-08-06T01:39:55;100789.06;;;13.53;82.25
70833;BME280;71099;59.528;17.886;2023-08-06T01:42:20;100785.81;;;13.51;82.44
70833;BME280;71099;59.528;17.886;2023-08-06T01:44:46;100777.06;;;13.52;82.41
70833;BME280;71099;59.528;17.886;2023-08-06T01:47:11;100777.69;;;13.54;82.36
70833;BME280;71099;59.528;17.886;2023-08-06T01:49:37;100777.88;;;13.53;82.46
70833;BME280;71099;59.528;17.886;2023-08-06T01:52:03;100773.50;;;13.53;82.39
70833;BME280;71099;59.528;17.886;2023-08-06T01:54:28;100768.63;;;13.50;82.65
70833;BME280;71099;59.528;17.886;2023-08-06T01:56:54;100775.44;;;13.51;82.69
70833;BME280;71099;59.528;17.886;2023-08-06T01:59:19;100773.00;;;13.50;82.79
70833;BME280;71099;59.528;17.886;2023-08-06T02:01:45;100780.94;;;13.48;82.76
70833;BME280;71099;59.528;17.886;2023-08-06T02:04:10;100775.75;;;13.48;82.98
70833;BME280;71099;59.528;17.886;2023-08-06T02:06:36;100772.53;;;13.46;82.68
70833;BME280;71099;59.528;17.886;2023-08-06T02:09:01;100772.53;;;13.46;82.96
70833;BME280;71099;59.528;17.886;2023-08-06T02:11:26;100770.91;;;13.45;82.86
70833;BME280;71099;59.528;17.886;2023-08-06T02:13:52;100772.53;;;13.46;83.05
70833;BME280;71099;59.528;17.886;2023-08-06T02:16:17;100782.91;;;13.46;83.10
70833;BME280;71099;59.528;17.886;2023-08-06T02:18:43;100781.25;;;13.45;82.88
70833;BME280;71099;59.528;17.886;2023-08-06T02:21:08;100771.22;;;13.42;83.01
70833;BME280;71099;59.528;17.886;2023-08-06T02:23:33;100765.53;;;13.39;83.20
70833;BME280;71099;59.528;17.886;2023-08-06T02:26:04;100772.53;;;13.46;83.17
70833;BME280;71099;59.528;17.886;2023-08-06T02:28:31;100772.03;;;13.43;83.17
70833;BME280;71099;59.528;17.886;2023-08-06T02:30:57;100778.31;;;13.40;83.11
70833;BME280;71099;59.528;17.886;2023-08-06T02:33:23;100779.28;;;13.39;83.25
70833;BME280;71099;59.528;17.886;2023-08-06T02:35:48;100775.09;;;13.38;83.10
70833;BME280;71099;59.528;17.886;2023-08-06T02:38:14;100778.50;;;13.39;83.13
70833;BME280;71099;59.528;17.886;2023-08-06T02:40:45;100779.59;;;13.36;83.22
70833;BME280;71099;59.528;17.886;2023-08-06T02:43:12;100780.09;;;13.32;83.48
70833;BME280;71099;59.528;17.886;2023-08-06T02:45:37;100777.97;;;13.27;83.80
70833;BME280;71099;59.528;17.886;2023-08-06T02:48:03;100779.09;;;13.25;83.98
70833;BME280;71099;59.528;17.886;2023-08-06T02:50:28;100779.41;;;13.21;84.01
70833;BME280;71099;59.528;17.886;2023-08-06T02:52:54;100782.50;;;13.17;83.98
70833;BME280;71099;59.528;17.886;2023-08-06T02:55:19;100780.84;;;13.16;84.15
70833;BME280;71099;59.528;17.886;2023-08-06T02:57:44;100785.22;;;13.15;84.23
70833;BME280;71099;59.528;17.886;2023-08-06T03:00:10;100781.47;;;13.10;84.10
70833;BME280;71099;59.528;17.886;2023-08-06T03:02:37;100785.69;;;13.11;84.19
70833;BME280;71099;59.528;17.886;2023-08-06T03:05:02;100778.19;;;13.08;84.37
70833;BME280;71099;59.528;17.886;2023-08-06T03:07:28;100788.06;;;13.04;85.06
70833;BME280;71099;59.528;17.886;2023-08-06T03:09:54;100787.25;;;13.04;85.32
70833;BME280;71099;59.528;17.886;2023-08-06T03:12:19;100791.94;;;13.00;85.47
70833;BME280;71099;59.528;17.886;2023-08-06T03:14:45;100802.31;;;13.00;85.55
70833;BME280;71099;59.528;17.886;2023-08-06T03:17:10;100795.47;;;12.99;85.48
70833;BME280;71099;59.528;17.886;2023-08-06T03:19:35;100809.25;;;13.00;85.15
70833;BME280;71099;59.528;17.886;2023-08-06T03:22:01;100813.47;;;13.01;84.93
70833;BME280;71099;59.528;17.886;2023-08-06T03:24:26;100809.94;;;13.02;84.78
70833;BME280;71099;59.528;17.886;2023-08-06T03:26:52;100817.22;;;13.06;84.54
70833;BME280;71099;59.528;17.886;2023-08-06T03:29:17;100814.19;;;13.11;84.39
70833;BME280;71099;59.528;17.886;2023-08-06T03:31:42;100822.63;;;13.13;84.06
70833;BME280;71099;59.528;17.886;2023-08-06T03:34:08;100836.25;;;13.15;84.12
70833;BME280;71099;59.528;17.886;2023-08-06T03:36:33;100840.59;;;13.14;84.10
70833;BME280;71099;59.528;17.886;2023-08-06T03:38:58;100824.25;;;13.14;83.90
70833;BME280;71099;59.528;17.886;2023-08-06T03:41:24;100826.47;;;13.09;84.07
70833;BME280;71099;59.528;17.886;2023-08-06T03:43:49;100824.56;;;13.11;84.37
70833;BME280;71099;59.528;17.886;2023-08-06T03:46:15;100817.75;;;13.10;84.52
70833;BME280;71099;59.528;17.886;2023-08-06T03:48:40;100814.19;;;13.11;84.74
70833;BME280;71099;59.528;17.886;2023-08-06T03:51:05;100814.19;;;13.11;84.86
70833;BME280;71099;59.528;17.886;2023-08-06T03:53:31;100819.72;;;13.16;84.85
70833;BME280;71099;59.528;17.886;2023-08-06T03:55:56;100821.03;;;13.20;84.79
70833;BME280;71099;59.528;17.886;2023-08-06T03:58:25;100818.44;;;13.20;84.59
70833;BME280;71099;59.528;17.886;2023-08-06T04:01:00;100819.44;;;13.27;84.52
70833;BME280;71099;59.528;17.886;2023-08-06T04:03:26;100812.31;;;13.29;84.45
70833;BME280;71099;59.528;17.886;2023-08-06T04:05:52;100821.56;;;13.32;84.28
70833;BME280;71099;59.528;17.886;2023-08-06T04:08:17;100815.25;;;13.34;84.40
70833;BME280;71099;59.528;17.886;2023-08-06T04:10:43;100804.88;;;13.34;84.72
70833;BME280;71099;59.528;17.886;2023-08-06T04:13:08;100806.19;;;13.38;84.93
70833;BME280;71099;59.528;17.886;2023-08-06T04:15:34;100801.84;;;13.39;85.14
70833;BME280;71099;59.528;17.886;2023-08-06T04:18:00;100806.38;;;13.45;85.48
70833;BME280;71099;59.528;17.886;2023-08-06T04:20:25;100816.28;;;13.49;86.06
70833;BME280;71099;59.528;17.886;2023-08-06T04:22:50;100822.09;;;13.51;86.30
70833;BME280;71099;59.528;17.886;2023-08-06T04:25:16;100802.66;;;13.55;86.40
70833;BME280;71099;59.528;17.886;2023-08-06T04:27:46;100790.03;;;13.60;86.26
70833;BME280;71099;59.528;17.886;2023-08-06T04:30:12;100780.66;;;13.67;86.65
70833;BME280;71099;59.528;17.886;2023-08-06T04:32:39;100782.25;;;13.68;86.83
70833;BME280;71099;59.528;17.886;2023-08-06T04:35:05;100794.91;;;13.80;87.04
70833;BME280;71099;59.528;17.886;2023-08-06T04:37:30;100789.25;;;13.84;87.57
70833;BME280;71099;59.528;17.886;2023-08-06T04:39:55;100782.28;;;13.85;87.49
70833;BME280;71099;59.528;17.886;2023-08-06T04:42:21;100789.59;;;13.89;87.96
70833;BME280;71099;59.528;17.886;2023-08-06T04:44:46;100795.91;;;13.95;88.28
70833;BME280;71099;59.528;17.886;2023-08-06T04:47:12;100794.28;;;14.02;88.33
70833;BME280;71099;59.528;17.886;2023-08-06T04:49:37;100796.88;;;14.10;88.25
70833;BME280;71099;59.528;17.886;2023-08-06T04:52:03;100793.00;;;14.14;88.49
70833;BME280;71099;59.528;17.886;2023-08-06T04:54:29;100794.28;;;14.18;88.41
70833;BME280;71099;59.528;17.886;2023-08-06T04:56:54;100797.22;;;14.23;88.21
70833;BME280;71099;59.528;17.886;2023-08-06T04:59:19;100799.16;;;14.29;88.41
70833;BME280;71099;59.528;17.886;2023-08-06T05:01:45;100799.16;;;14.37;88.08
70833;BME280;71099;59.528;17.886;2023-08-06T05:04:10;100797.53;;;14.44;88.23
70833;BME280;71099;59.528;17.886;2023-08-06T05:06:36;100791.03;;;14.48;87.94
70833;BME280;71099;59.528;17.886;2023-08-06T05:09:03;100787.78;;;14.54;88.09
70833;BME280;71099;59.528;17.886;2023-08-06T05:11:29;100785.16;;;14.62;88.35
70833;BME280;71099;59.528;17.886;2023-08-06T05:13:55;100789.88;;;14.67;88.46
70833;BME280;71099;59.528;17.886;2023-08-06T05:16:20;100795.84;;;14.67;88.46
70833;BME280;71099;59.528;17.886;2023-08-06T05:18:46;100797.78;;;14.74;88.64
70833;BME280;71099;59.528;17.886;2023-08-06T05:21:11;100800.69;;;14.79;88.80
70833;BME280;71099;59.528;17.886;2023-08-06T05:23:37;100798.25;;;14.85;88.98
70833;BME280;71099;59.528;17.886;2023-08-06T05:26:02;100794.00;;;14.92;88.79
70833;BME280;71099;59.528;17.886;2023-08-06T05:28:28;100794.28;;;14.97;89.14
70833;BME280;71099;59.528;17.886;2023-08-06T05:30:53;100794.72;;;15.09;88.82
70833;BME280;71099;59.528;17.886;2023-08-06T05:33:18;100792.09;;;15.17;88.50
70833;BME280;71099;59.528;17.886;2023-08-06T05:35:44;100786.44;;;15.13;87.84
70833;BME280;71099;59.528;17.886;2023-08-06T05:38:09;100785.16;;;15.09;87.64
70833;BME280;71099;59.528;17.886;2023-08-06T05:40:35;100782.34;;;15.19;86.97
70833;BME280;71099;59.528;17.886;2023-08-06T05:43:00;100777.28;;;15.26;86.80
70833;BME280;71099;59.528;17.886;2023-08-06T05:45:26;100775.44;;;15.34;86.49
70833;BME280;71099;59.528;17.886;2023-08-06T05:47:51;100773.13;;;15.39;86.18
70833;BME280;71099;59.528;17.886;2023-08-06T05:50:19;100778.28;;;15.47;86.11
70833;BME280;71099;59.528;17.886;2023-08-06T05:52:44;100785.44;;;15.45;85.98
70833;BME280;71099;59.528;17.886;2023-08-06T05:55:09;100781.03;;;15.54;86.04
70833;BME280;71099;59.528;17.886;2023-08-06T05:57:35;100781.47;;;15.66;85.55
70833;BME280;71099;59.528;17.886;2023-08-06T06:00:01;100784.00;;;15.74;84.97
70833;BME280;71099;59.528;17.886;2023-08-06T06:02:27;100785.84;;;15.88;84.67
70833;BME280;71099;59.528;17.886;2023-08-06T06:04:53;100780.59;;;15.96;83.65
70833;BME280;71099;59.528;17.886;2023-08-06T06:07:18;100777.97;;;15.96;82.87
70833;BME280;71099;59.528;17.886;2023-08-06T06:09:43;100777.44;;;16.00;81.53
70833;BME280;71099;59.528;17.886;2023-08-06T06:12:10;100771.88;;;16.03;80.78
70833;BME280;71099;59.528;17.886;2023-08-06T06:14:35;100769.47;;;16.02;80.75
70833;BME280;71099;59.528;17.886;2023-08-06T06:17:00;100775.50;;;16.17;80.63
70833;BME280;71099;59.528;17.886;2023-08-06T06:19:26;100769.59;;;16.23;80.33
70833;BME280;71099;59.528;17.886;2023-08-06T06:21:52;100769.81;;;16.36;80.19
70833;BME280;71099;59.528;17.886;2023-08-06T06:24:18;100764.47;;;16.44;79.95
70833;BME280;71099;59.528;17.886;2023-08-06T06:26:44;100765.38;;;16.51;79.93
70833;BME280;71099;59.528;17.886;2023-08-06T06:29:09;100767.00;;;16.52;80.13
70833;BME280;71099;59.528;17.886;2023-08-06T06:31:34;100765.69;;;16.56;80.25
70833;BME280;71099;59.528;17.886;2023-08-06T06:34:00;100765.09;;;16.69;79.93
70833;BME280;71099;59.528;17.886;2023-08-06T06:36:26;100764.06;;;16.85;79.87
70833;BME280;71099;59.528;17.886;2023-08-06T06:38:51;100762.72;;;16.89;79.62
70833;BME280;71099;59.528;17.886;2023-08-06T06:41:17;100754.69;;;17.05;79.28
70833;BME280;71099;59.528;17.886;2023-08-06T06:43:42;100752.50;;;17.23;78.97
70833;BME280;71099;59.528;17.886;2023-08-06T06:46:07;100750.00;;;17.15;78.16
70833;BME280;71099;59.528;17.886;2023-08-06T06:48:33;100742.94;;;17.30;78.01
70833;BME280;71099;59.528;17.886;2023-08-06T06:50:59;100736.47;;;17.47;77.26
70833;BME280;71099;59.528;17.886;2023-08-06T06:53:24;100728.63;;;17.62;76.92
70833;BME280;71099;59.528;17.886;2023-08-06T06:56:00;100729.69;;;17.68;76.18
70833;BME280;71099;59.528;17.886;2023-08-06T06:58:26;100722.94;;;17.80;76.00
70833;BME280;71099;59.528;17.886;2023-08-06T07:00:51;100718.44;;;17.95;75.59
70833;BME280;71099;59.528;17.886;2023-08-06T07:03:17;100729.31;;;17.98;75.27
70833;BME280;71099;59.528;17.886;2023-08-06T07:05:44;100723.53;;;18.03;75.21
70833;BME280;71099;59.528;17.886;2023-08-06T07:08:09;100730.41;;;18.11;74.32
70833;BME280;71099;59.528;17.886;2023-08-06T07:10:35;100724.00;;;18.13;74.59
70833;BME280;71099;59.528;17.886;2023-08-06T07:13:00;100729.09;;;18.28;74.62
70833;BME280;71099;59.528;17.886;2023-08-06T07:15:26;100717.91;;;18.06;73.23
70833;BME280;71099;59.528;17.886;2023-08-06T07:17:51;100721.97;;;18.09;73.54
70833;BME280;71099;59.528;17.886;2023-08-06T07:20:17;100723.34;;;18.04;73.53
70833;BME280;71099;59.528;17.886;2023-08-06T07:22:43;100717.19;;;18.12;72.97
70833;BME280;71099;59.528;17.886;2023-08-06T07:25:08;100720.09;;;18.30;72.40
70833;BME280;71099;59.528;17.886;2023-08-06T07:27:34;100715.66;;;18.31;72.44
70833;BME280;71099;59.528;17.886;2023-08-06T07:29:59;100729.78;;;18.36;72.15
70833;BME280;71099;59.528;17.886;2023-08-06T07:32:26;100717.94;;;18.40;72.11
70833;BME280;71099;59.528;17.886;2023-08-06T07:34:53;100729.19;;;18.34;72.10
70833;BME280;71099;59.528;17.886;2023-08-06T07:37:22;100725.88;;;18.53;71.77
70833;BME280;71099;59.528;17.886;2023-08-06T07:39:48;100721.94;;;18.71;72.10
70833;BME280;71099;59.528;17.886;2023-08-06T07:42:13;100722.38;;;18.81;71.28
70833;BME280;71099;59.528;17.886;2023-08-06T07:44:39;100728.06;;;18.91;70.86
70833;BME280;71099;59.528;17.886;2023-08-06T07:47:05;100713.19;;;19.04;70.54
70833;BME280;71099;59.528;17.886;2023-08-06T07:49:30;100713.59;;;19.08;69.81
70833;BME280;71099;59.528;17.886;2023-08-06T07:51:55;100716.63;;;19.12;68.28
70833;BME280;71099;59.528;17.886;2023-08-06T07:54:21;100719.28;;;19.18;68.54
70833;BME280;71099;59.528;17.886;2023-08-06T07:56:47;100721.28;;;19.23;69.12
70833;BME280;71099;59.528;17.886;2023-08-06T07:59:13;100702.38;;;19.27;67.75
70833;BME280;71099;59.528;17.886;2023-08-06T08:01:38;100707.19;;;19.11;68.38
70833;BME280;71099;59.528;17.886;2023-08-06T08:04:04;100713.84;;;19.20;68.67
70833;BME280;71099;59.528;17.886;2023-08-06T08:06:30;100718.09;;;19.27;68.03
70833;BME280;71099;59.528;17.886;2023-08-06T08:08:55;100716.28;;;19.34;67.79
70833;BME280;71099;59.528;17.886;2023-08-06T08:11:21;100711.72;;;19.49;66.61
70833;BME280;71099;59.528;17.886;2023-08-06T08:13:46;100723.41;;;19.60;66.36
70833;BME280;71099;59.528;17.886;2023-08-06T08:16:12;100714.53;;;19.61;66.36
70833;BME280;71099;59.528;17.886;2023-08-06T08:18:37;100705.69;;;19.62;65.95
70833;BME280;71099;59.528;17.886;2023-08-06T08:21:03;100715.34;;;19.75;65.82
70833;BME280;71099;59.528;17.886;2023-08-06T08:23:28;100717.97;;;19.81;65.54
70833;BME280;71099;59.528;17.886;2023-08-06T08:25:53;100717.34;;;19.86;65.74
70833;BME280;71099;59.528;17.886;2023-08-06T08:28:19;100723.41;;;19.93;64.64
70833;BME280;71099;59.528;17.886;2023-08-06T08:30:45;100713.31;;;19.90;63.35
70833;BME280;71099;59.528;17.886;2023-08-06T08:33:10;100711.91;;;19.94;63.22
70833;BME280;71099;59.528;17.886;2023-08-06T08:35:36;100716.97;;;19.95;62.91
70833;BME280;71099;59.528;17.886;2023-08-06T08:38:02;100723.19;;;20.14;61.88
70833;BME280;71099;59.528;17.886;2023-08-06T08:40:32;100723.00;;;20.09;61.36
70833;BME280;71099;59.528;17.886;2023-08-06T08:42:58;100735.06;;;20.23;62.30
70833;BME280;71099;59.528;17.886;2023-08-06T08:45:26;100739.72;;;20.34;62.26
70833;BME280;71099;59.528;17.886;2023-08-06T08:47:54;100741.91;;;20.24;62.24
70833;BME280;71099;59.528;17.886;2023-08-06T08:50:19;100733.03;;;20.25;62.07
70833;BME280;71099;59.528;17.886;2023-08-06T08:52:45;100733.88;;;20.32;62.82
70833;BME280;71099;59.528;17.886;2023-08-06T08:55:12;100732.44;;;20.36;61.77
70833;BME280;71099;59.528;17.886;2023-08-06T08:57:39;100718.94;;;20.39;61.53
70833;BME280;71099;59.528;17.886;2023-08-06T09:00:05;100730.19;;;20.53;61.64
70833;BME280;71099;59.528;17.886;2023-08-06T09:02:32;100720.09;;;20.57;60.73
70833;BME280;71099;59.528;17.886;2023-08-06T09:04:58;100708.59;;;20.58;60.77
70833;BME280;71099;59.528;17.886;2023-08-06T09:07:38;100711.56;;;20.68;60.82
70833;BME280;71099;59.528;17.886;2023-08-06T09:10:06;100699.81;;;20.83;59.95
70833;BME280;71099;59.528;17.886;2023-08-06T09:12:35;100698.75;;;20.91;58.81
70833;BME280;71099;59.528;17.886;2023-08-06T09:15:00;100698.09;;;20.95;58.99
70833;BME280;71099;59.528;17.886;2023-08-06T09:17:28;100692.84;;;21.02;59.70
70833;BME280;71099;59.528;17.886;2023-08-06T09:19:54;100689.63;;;21.00;59.06
70833;BME280;71099;59.528;17.886;2023-08-06T09:22:20;100689.69;;;20.87;58.54
70833;BME280;71099;59.528;17.886;2023-08-06T09:24:45;100681.88;;;20.74;58.10
70833;BME280;71099;59.528;17.886;2023-08-06T09:27:14;100677.28;;;20.69;58.05
70833;BME280;71099;59.528;17.886;2023-08-06T09:29:44;100678.53;;;20.54;56.75
70833;BME280;71099;59.528;17.886;2023-08-06T09:32:11;100664.38;;;20.68;56.48
70833;BME280;71099;59.528;17.886;2023-08-06T09:34:41;100668.50;;;20.37;55.93
70833;BME280;71099;59.528;17.886;2023-08-06T09:37:09;100666.50;;;20.26;57.06
70833;BME280;71099;59.528;17.886;2023-08-06T09:39:36;100664.28;;;20.23;57.16
70833;BME280;71099;59.528;17.886;2023-08-06T09:42:02;100655.22;;;20.19;54.97
70833;BME280;71099;59.528;17.886;2023-08-06T09:44:32;100638.06;;;20.36;56.13
70833;BME280;71099;59.528;17.886;2023-08-06T09:46:59;100643.06;;;20.44;56.19
70833;BME280;71099;59.528;17.886;2023-08-06T09:49:27;100636.38;;;20.55;56.18
70833;BME280;71099;59.528;17.886;2023-08-06T09:51:53;100632.94;;;20.61;54.67
70833;BME280;71099;59.528;17.886;2023-08-06T09:54:24;100620.91;;;20.40;56.43
70833;BME280;71099;59.528;17.886;2023-08-06T09:56:51;100620.91;;;20.40;56.34
70833;BME280;71099;59.528;17.886;2023-08-06T09:59:18;100610.91;;;20.18;54.50
70833;BME280;71099;59.528;17.886;2023-08-06T10:01:45;100609.69;;;20.07;56.73
70833;BME280;71099;59.528;17.886;2023-08-06T10:04:12;100601.22;;;20.12;55.20
70833;BME280;71099;59.528;17.886;2023-08-06T10:06:42;100601.22;;;20.12;56.49
70833;BME280;71099;59.528;17.886;2023-08-06T10:09:07;100595.59;;;20.08;55.96
70833;BME280;71099;59.528;17.886;2023-08-06T10:11:38;100579.84;;;20.15;55.91
70833;BME280;71099;59.528;17.886;2023-08-06T10:14:16;100576.84;;;20.11;55.92
70833;BME280;71099;59.528;17.886;2023-08-06T10:16:43;100572.00;;;20.08;56.73
70833;BME280;71099;59.528;17.886;2023-08-06T10:19:10;100564.22;;;19.82;57.36
70833;BME280;71099;59.528;17.886;2023-08-06T10:21:39;100565.09;;;19.63;57.47
70833;BME280;71099;59.528;17.886;2023-08-06T10:24:08;100556.44;;;19.36;58.56
70833;BME280;71099;59.528;17.886;2023-08-06T10:26:36;100557.84;;;19.38;58.88
70833;BME280;71099;59.528;17.886;2023-08-06T10:29:13;100545.59;;;19.45;59.74
70833;BME280;71099;59.528;17.886;2023-08-06T10:31:54;100536.94;;;19.52;59.47
70833;BME280;71099;59.528;17.886;2023-08-06T10:34:20;100542.13;;;19.38;58.84
70833;BME280;71099;59.528;17.886;2023-08-06T10:36:46;100540.13;;;19.27;59.78
70833;BME280;71099;59.528;17.886;2023-08-06T10:39:15;100536.13;;;19.05;59.59
70833;BME280;71099;59.528;17.886;2023-08-06T10:41:42;100531.28;;;18.82;60.91
70833;BME280;71099;59.528;17.886;2023-08-06T10:44:09;100538.75;;;18.92;61.10
70833;BME280;71099;59.528;17.886;2023-08-06T10:46:36;100524.06;;;18.91;63.15
70833;BME280;71099;59.528;17.886;2023-08-06T10:49:02;100521.22;;;18.73;62.52
70833;BME280;71099;59.528;17.886;2023-08-06T10:51:28;100517.22;;;18.77;64.32
70833;BME280;71099;59.528;17.886;2023-08-06T10:53:53;100510.75;;;18.73;63.69
70833;BME280;71099;59.528;17.886;2023-08-06T10:56:23;100505.13;;;18.76;65.11
70833;BME280;71099;59.528;17.886;2023-08-06T10:58:53;100502.50;;;18.76;64.74
70833;BME280;71099;59.528;17.886;2023-08-06T11:01:19;100496.88;;;18.79;64.44
70833;BME280;71099;59.528;17.886;2023-08-06T11:03:46;100501.13;;;18.73;65.42
70833;BME280;71099;59.528;17.886;2023-08-06T11:06:17;100500.09;;;18.61;66.20
70833;BME280;71099;59.528;17.886;2023-08-06T11:08:51;100502.69;;;18.61;65.27
70833;BME280;71099;59.528;17.886;2023-08-06T11:11:17;100508.75;;;18.62;66.25
70833;BME280;71099;59.528;17.886;2023-08-06T11:13:44;100511.91;;;18.50;66.81
70833;BME280;71099;59.528;17.886;2023-08-06T11:16:12;100516.72;;;18.40;68.02
70833;BME280;71099;59.528;17.886;2023-08-06T11:18:39;100512.72;;;18.44;68.29
70833;BME280;71099;59.528;17.886;2023-08-06T11:21:05;100528.78;;;18.41;68.93
70833;BME280;71099;59.528;17.886;2023-08-06T11:23:31;100534.78;;;18.42;68.37
70833;BME280;71099;59.528;17.886;2023-08-06T11:25:57;100534.38;;;18.32;69.17
70833;BME280;71099;59.528;17.886;2023-08-06T11:28:23;100548.47;;;18.37;69.87
70833;BME280;71099;59.528;17.886;2023-08-06T11:30:52;100547.25;;;18.33;70.89
70833;BME280;71099;59.528;17.886;2023-08-06T11:33:24;100546.66;;;18.38;71.34
70833;BME280;71099;59.528;17.886;2023-08-06T11:35:51;100537.19;;;18.30;73.08
70833;BME280;71099;59.528;17.886;2023-08-06T11:38:17;100541.19;;;18.26;73.16
70833;BME280;71099;59.528;17.886;2023-08-06T11:40:47;100542.78;;;18.27;73.31
70833;BME280;71099;59.528;17.886;2023-08-06T11:43:13;100534.09;;;18.07;74.80
70833;BME280;71099;59.528;17.886;2023-08-06T11:45:39;100539.47;;;17.99;75.82
70833;BME280;71099;59.528;17.886;2023-08-06T11:48:06;100536.25;;;17.97;76.30
70833;BME280;71099;59.528;17.886;2023-08-06T11:50:36;100541.88;;;17.94;76.45
70833;BME280;71099;59.528;17.886;2023-08-06T11:53:03;100548.66;;;17.82;77.07
70833;BME280;71099;59.528;17.886;2023-08-06T11:55:28;100555.47;;;17.83;77.27
70833;BME280;71099;59.528;17.886;2023-08-06T11:57:55;100555.63;;;17.75;77.76
70833;BME280;71099;59.528;17.886;2023-08-06T12:00:22;100557.84;;;17.78;78.65
70833;BME280;71099;59.528;17.886;2023-08-06T12:02:49;100557.00;;;17.71;79.93
70833;BME280;71099;59.528;17.886;2023-08-06T12:05:17;100550.94;;;17.64;80.38
70833;BME280;71099;59.528;17.886;2023-08-06T12:07:56;100544.53;;;17.66;81.21
70833;BME280;71099;59.528;17.886;2023-08-06T12:10:22;100546.56;;;17.71;81.03
70833;BME280;71099;59.528;17.886;2023-08-06T12:12:49;100536.13;;;17.71;81.66
70833;BME280;71099;59.528;17.886;2023-08-06T12:15:15;100535.72;;;17.67;82.54
70833;BME280;71099;59.528;17.886;2023-08-06T12:17:41;100531.88;;;17.63;82.36
70833;BME280;71099;59.528;17.886;2023-08-06T12:20:07;100525.97;;;17.54;82.57
70833;BME280;71099;59.528;17.886;2023-08-06T12:22:33;100536.53;;;17.46;83.05
70833;BME280;71099;59.528;17.886;2023-08-06T12:25:03;100535.69;;;17.39;84.23
70833;BME280;71099;59.528;17.886;2023-08-06T12:27:31;100530.13;;;17.42;84.04
70833;BME280;71099;59.528;17.886;2023-08-06T12:29:57;100535.94;;;17.44;84.30
70833;BME280;71099;59.528;17.886;2023-08-06T12:32:22;100525.47;;;17.38;84.44
70833;BME280;71099;59.528;17.886;2023-08-06T12:34:48;100517.81;;;17.36;84.74
70833;BME280;71099;59.528;17.886;2023-08-06T12:37:13;100504.56;;;17.31;85.22
70833;BME280;71099;59.528;17.886;2023-08-06T12:39:38;100514.28;;;17.16;85.49
70833;BME280;71099;59.528;17.886;2023-08-06T12:42:05;100514.78;;;17.05;86.00